createdAt,value
2023-02-17T00:00:12.676Z,4.47
2023-02-17T00:04:00.497Z,4.46
2023-02-17T00:07:31.613Z,4.45
2023-02-17T00:10:59.955Z,4.45
2023-02-17T00:14:27.305Z,4.45
2023-02-17T00:17:54.506Z,4.48
2023-02-17T00:21:23.650Z,4.51
2023-02-17T00:24:53.459Z,4.52
2023-02-17T00:28:20.599Z,4.55
2023-02-17T00:31:47.800Z,4.56
2023-02-17T00:35:14.838Z,4.59
2023-02-17T00:38:42.248Z,4.62
2023-02-17T00:42:09.499Z,4.66
2023-02-17T00:45:36.824Z,4.69
2023-02-17T00:49:04.126Z,4.70
2023-02-17T00:52:31.311Z,4.71
2023-02-17T00:55:58.429Z,4.71
2023-02-17T00:59:25.692Z,4.71
2023-02-17T01:02:55.806Z,4.72
2023-02-17T01:06:28.508Z,4.73
2023-02-17T01:09:55.884Z,4.74
2023-02-17T01:13:23.163Z,4.77
2023-02-17T01:16:51.288Z,4.79
2023-02-17T01:20:19.285Z,4.80
2023-02-17T01:23:46.560Z,4.81
2023-02-17T01:27:13.735Z,4.82
2023-02-17T01:30:41.120Z,4.83
2023-02-17T01:34:08.523Z,4.83
2023-02-17T01:37:38.276Z,4.85
2023-02-17T01:41:06.071Z,4.85
2023-02-17T01:44:36.010Z,4.85
2023-02-17T01:48:11.410Z,4.86
2023-02-17T01:51:41.134Z,4.88
2023-02-17T01:55:09.812Z,4.88
2023-02-17T01:58:39.792Z,4.89
2023-02-17T02:02:06.530Z,4.90
2023-02-17T02:05:44.395Z,4.91
2023-02-17T02:09:16.904Z,4.91
2023-02-17T02:12:45.542Z,4.91
2023-02-17T02:16:20.343Z,4.92
2023-02-17T02:20:18.210Z,4.94
2023-02-17T02:24:04.918Z,4.95
2023-02-17T02:27:51.218Z,4.98
2023-02-17T02:31:42.769Z,4.98
2023-02-17T02:35:14.986Z,4.98
2023-02-17T02:38:49.098Z,4.99
2023-02-17T02:42:21.559Z,4.99
2023-02-17T02:45:49.538Z,5.00
2023-02-17T02:49:16.896Z,5.01
2023-02-17T02:52:56.735Z,5.03
2023-02-17T02:56:40.626Z,5.03
2023-02-17T03:00:16.632Z,5.04
2023-02-17T03:03:54.924Z,5.07
2023-02-17T03:07:27.570Z,5.08
2023-02-17T03:10:56.121Z,5.08
2023-02-17T03:14:26.324Z,5.08
2023-02-17T03:17:54.026Z,5.08
2023-02-17T03:21:26.999Z,5.09
2023-02-17T03:24:52.928Z,5.10
2023-02-17T03:28:20.273Z,5.10
2023-02-17T03:31:48.230Z,5.11
2023-02-17T03:35:16.218Z,5.11
2023-02-17T03:38:43.292Z,5.13
2023-02-17T03:42:10.803Z,5.13
2023-02-17T03:45:40.803Z,5.12
2023-02-17T03:49:17.786Z,5.12
2023-02-17T03:52:46.070Z,5.11
2023-02-17T03:56:14.455Z,5.11
2023-02-17T03:59:42.044Z,5.10
2023-02-17T04:03:09.359Z,5.09
2023-02-17T04:06:36.747Z,5.07
2023-02-17T04:10:06.291Z,5.06
2023-02-17T04:13:34.693Z,5.03
2023-02-17T04:17:01.805Z,4.99
2023-02-17T04:20:29.105Z,4.95
2023-02-17T04:23:56.385Z,4.91
2023-02-17T04:27:24.021Z,4.90
2023-02-17T04:30:52.312Z,4.88
2023-02-17T04:34:19.541Z,4.87
2023-02-17T04:37:49.554Z,4.86
2023-02-17T04:41:17.638Z,4.86
2023-02-17T04:44:47.739Z,4.84
2023-02-17T04:48:15.050Z,4.84
2023-02-17T04:51:45.404Z,4.82
2023-02-17T04:55:12.918Z,4.81
2023-02-17T04:58:40.309Z,4.79
2023-02-17T05:02:07.644Z,4.79
2023-02-17T05:05:37.844Z,4.78
2023-02-17T05:09:05.032Z,4.78
2023-02-17T05:12:32.282Z,4.77
2023-02-17T05:15:59.716Z,4.77
2023-02-17T05:19:27.164Z,4.76
2023-02-17T05:22:54.321Z,4.76
2023-02-17T05:26:21.616Z,4.76
2023-02-17T05:29:49.276Z,4.77
2023-02-17T05:33:16.903Z,4.76
2023-02-17T05:36:46.634Z,4.76
2023-02-17T05:40:14.873Z,4.76
2023-02-17T05:43:42.090Z,4.77
2023-02-17T05:47:09.355Z,4.79
2023-02-17T05:50:36.678Z,4.80
2023-02-17T05:54:03.945Z,4.82
2023-02-17T05:57:31.430Z,4.85
2023-02-17T06:00:58.713Z,4.88
2023-02-17T06:04:25.949Z,4.90
2023-02-17T06:07:53.346Z,4.93
2023-02-17T06:11:20.811Z,4.96
2023-02-17T06:14:58.240Z,4.98
2023-02-17T06:18:25.460Z,5.00
2023-02-17T06:21:53.093Z,5.03
2023-02-17T06:25:20.363Z,5.05
2023-02-17T06:28:47.739Z,5.07
2023-02-17T06:32:15.207Z,5.07
2023-02-17T06:35:42.452Z,5.09
2023-02-17T06:39:09.720Z,5.10
2023-02-17T06:42:36.846Z,5.12
2023-02-17T06:46:04.580Z,5.14
2023-02-17T06:49:32.038Z,5.16
2023-02-17T06:52:59.207Z,5.19
2023-02-17T06:56:38.038Z,5.22
2023-02-17T07:00:06.871Z,5.27
2023-02-17T07:03:34.641Z,5.31
2023-02-17T07:07:01.828Z,5.35
2023-02-17T07:10:29.124Z,5.39
2023-02-17T07:13:56.368Z,5.42
2023-02-17T07:17:23.889Z,5.45
2023-02-17T07:20:51.064Z,5.47
2023-02-17T07:24:18.440Z,5.51
2023-02-17T07:27:45.786Z,5.54
2023-02-17T07:31:15.046Z,5.59
2023-02-17T07:34:42.391Z,5.63
2023-02-17T07:38:09.649Z,5.67
2023-02-17T07:41:36.807Z,5.71
2023-02-17T07:45:09.734Z,5.76
2023-02-17T07:48:37.850Z,5.79
2023-02-17T07:52:05.605Z,5.84
2023-02-17T07:55:38.660Z,5.88
2023-02-17T07:59:09.167Z,5.93
2023-02-17T08:02:36.522Z,5.97
2023-02-17T08:06:04.803Z,6.01
2023-02-17T08:09:50.339Z,6.03
2023-02-17T08:13:20.393Z,6.05
2023-02-17T08:16:55.676Z,6.06
2023-02-17T08:20:23.295Z,6.07
2023-02-17T08:23:50.621Z,6.07
2023-02-17T08:27:18.525Z,6.09
2023-02-17T08:30:45.771Z,6.11
2023-02-17T08:34:15.127Z,6.15
2023-02-17T08:37:42.429Z,6.19
2023-02-17T08:41:18.762Z,6.21
2023-02-17T08:44:47.758Z,6.24
2023-02-17T08:48:15.144Z,6.27
2023-02-17T08:51:42.925Z,6.30
2023-02-17T08:55:10.662Z,6.33
2023-02-17T08:58:37.884Z,6.37
2023-02-17T09:02:05.142Z,6.41
2023-02-17T09:05:32.924Z,6.45
2023-02-17T09:09:00.183Z,6.50
2023-02-17T09:12:27.527Z,6.56
2023-02-17T09:15:54.986Z,6.61
2023-02-17T09:19:22.761Z,6.66
2023-02-17T09:22:51.485Z,6.70
2023-02-17T09:26:20.501Z,6.73
2023-02-17T09:29:47.806Z,6.76
2023-02-17T09:33:15.172Z,6.81
2023-02-17T09:36:43.994Z,6.85
2023-02-17T09:40:18.959Z,6.90
2023-02-17T09:43:46.406Z,6.97
2023-02-17T09:47:19.516Z,7.01
2023-02-17T09:50:55.509Z,7.06
2023-02-17T09:54:27.663Z,7.12
2023-02-17T09:57:59.857Z,7.19
2023-02-17T10:01:34.190Z,7.26
2023-02-17T10:05:07.114Z,7.32
2023-02-17T10:08:42.582Z,7.37
2023-02-17T10:12:15.423Z,7.40
2023-02-17T10:15:45.939Z,7.42
2023-02-17T10:19:17.885Z,7.43
2023-02-17T10:22:49.019Z,7.47
2023-02-17T10:26:28.231Z,7.54
2023-02-17T10:30:09.817Z,7.62
2023-02-17T10:33:40.114Z,7.70
2023-02-17T10:37:14.998Z,7.74
2023-02-17T10:40:45.492Z,7.80
2023-02-17T10:44:27.224Z,7.88
2023-02-17T10:48:07.753Z,7.98
2023-02-17T10:51:35.245Z,8.04
2023-02-17T10:55:20.856Z,8.09
2023-02-17T10:58:56.152Z,8.17
2023-02-17T11:02:31.635Z,8.23
2023-02-17T11:06:01.342Z,8.29
2023-02-17T11:09:33.043Z,8.35
2023-02-17T11:13:02.811Z,8.39
2023-02-17T11:16:34.908Z,8.42
2023-02-17T11:20:04.941Z,8.47
2023-02-17T11:23:32.658Z,8.50
2023-02-17T11:27:04.801Z,8.54
2023-02-17T11:30:34.710Z,8.57
2023-02-17T11:34:11.771Z,8.58
2023-02-17T11:37:43.653Z,8.58
2023-02-17T11:41:11.786Z,8.59
2023-02-17T11:44:39.312Z,8.62
2023-02-17T11:48:27.371Z,8.64
2023-02-17T11:52:13.339Z,8.67
2023-02-17T11:55:59.517Z,8.70
2023-02-17T11:59:44.419Z,8.72
2023-02-17T12:03:45.122Z,8.72
2023-02-17T12:07:36.009Z,8.73
2023-02-17T12:11:13.271Z,8.75
2023-02-17T12:14:59.497Z,8.79
2023-02-17T12:18:43.499Z,8.84
2023-02-17T12:22:19.687Z,8.87
2023-02-17T12:25:52.023Z,8.92
2023-02-17T12:30:07.699Z,8.95
2023-02-17T12:33:51.913Z,8.98
2023-02-17T12:37:23.475Z,9.00
2023-02-17T12:41:00.366Z,9.04
2023-02-17T12:44:30.989Z,9.08
2023-02-17T12:48:03.528Z,9.12
2023-02-17T12:51:35.284Z,9.15
2023-02-17T12:55:21.117Z,9.17
2023-02-17T12:58:49.557Z,9.17
2023-02-17T13:02:18.949Z,9.15
2023-02-17T13:05:52.176Z,9.12
2023-02-17T13:09:30.792Z,9.09
2023-02-17T13:13:05.034Z,9.04
2023-02-17T13:16:47.196Z,8.98
2023-02-17T13:20:45.826Z,8.92
2023-02-17T13:24:32.266Z,8.84
2023-02-17T13:28:04.756Z,8.77
2023-02-17T13:31:32.135Z,8.72
2023-02-17T13:35:09.427Z,8.67
2023-02-17T13:38:36.663Z,8.63
2023-02-17T13:42:05.439Z,8.58
2023-02-17T13:45:40.972Z,8.54
2023-02-17T13:49:24.631Z,8.50
2023-02-17T13:52:52.106Z,8.48
2023-02-17T13:56:29.926Z,8.47
2023-02-17T14:00:09.336Z,8.45
2023-02-17T14:03:48.088Z,8.44
2023-02-17T14:07:15.832Z,8.43
2023-02-17T14:10:43.442Z,8.44
2023-02-17T14:14:12.306Z,8.45
2023-02-17T14:17:39.688Z,8.45
2023-02-17T14:21:10.463Z,8.46
2023-02-17T14:24:39.479Z,8.48
2023-02-17T14:28:18.611Z,8.48
2023-02-17T14:31:47.841Z,8.49
2023-02-17T14:35:26.441Z,8.50
2023-02-17T14:38:58.547Z,8.52
2023-02-17T14:42:25.804Z,8.55
2023-02-17T14:45:53.621Z,8.56
2023-02-17T14:49:20.843Z,8.56
2023-02-17T14:52:52.408Z,8.57
2023-02-17T14:56:24.429Z,8.60
2023-02-17T14:59:56.940Z,8.62
2023-02-17T15:03:26.557Z,8.64
2023-02-17T15:06:55.405Z,8.68
2023-02-17T15:10:27.346Z,8.70
2023-02-17T15:13:57.340Z,8.73
2023-02-17T15:17:27.536Z,8.78
2023-02-17T15:21:18.793Z,8.81
2023-02-17T15:24:46.139Z,8.85
2023-02-17T15:28:16.721Z,8.89
2023-02-17T15:31:44.169Z,8.94
2023-02-17T15:35:20.242Z,8.97
2023-02-17T15:38:52.644Z,8.99
2023-02-17T15:42:20.406Z,9.00
2023-02-17T15:45:50.468Z,9.00
2023-02-17T15:49:18.428Z,9.02
2023-02-17T15:52:46.944Z,9.02
2023-02-17T15:56:22.274Z,9.03
2023-02-17T15:59:50.051Z,9.04
2023-02-17T16:03:22.799Z,9.05
2023-02-17T16:06:58.101Z,9.07
2023-02-17T16:10:29.653Z,9.09
2023-02-17T16:14:10.468Z,9.12
2023-02-17T16:17:46.794Z,9.16
2023-02-17T16:21:21.632Z,9.21
2023-02-17T16:24:59.114Z,9.29
2023-02-17T16:28:26.445Z,9.39
2023-02-17T16:32:15.463Z,9.48
2023-02-17T16:35:54.057Z,9.56
2023-02-17T16:39:22.498Z,9.58
2023-02-17T16:42:50.099Z,9.60
2023-02-17T16:46:27.319Z,9.60
2023-02-17T16:49:54.619Z,9.62
2023-02-17T16:53:22.614Z,9.64
2023-02-17T16:56:54.177Z,9.67
2023-02-17T17:00:24.268Z,9.70
2023-02-17T17:03:54.062Z,9.75
2023-02-17T17:07:21.325Z,9.81
2023-02-17T17:10:49.542Z,9.87
2023-02-17T17:14:21.652Z,9.94
2023-02-17T17:17:57.282Z,9.99
2023-02-17T17:21:28.423Z,10.06
2023-02-17T17:25:03.699Z,10.11
2023-02-17T17:28:31.171Z,10.14
2023-02-17T17:32:01.832Z,10.18
2023-02-17T17:35:30.461Z,10.23
2023-02-17T17:38:59.297Z,10.26
2023-02-17T17:42:26.467Z,10.26
2023-02-17T17:45:54.405Z,10.26
2023-02-17T17:49:21.731Z,10.24
2023-02-17T17:52:49.912Z,10.23
2023-02-17T17:56:23.471Z,10.23
2023-02-17T17:59:50.825Z,10.24
2023-02-17T18:03:18.243Z,10.26
2023-02-17T18:06:47.601Z,10.28
2023-02-17T18:10:17.776Z,10.35
2023-02-17T18:13:47.379Z,10.40
2023-02-17T18:17:18.274Z,10.43
2023-02-17T18:20:46.298Z,10.42
2023-02-17T18:24:16.721Z,10.44
2023-02-17T18:27:46.288Z,10.48
2023-02-17T18:31:19.274Z,10.51
2023-02-17T18:34:46.786Z,10.54
2023-02-17T18:38:13.929Z,10.59
2023-02-17T18:41:41.333Z,10.63
2023-02-17T18:45:12.978Z,10.65
2023-02-17T18:48:40.457Z,10.66
2023-02-17T18:52:08.011Z,10.66
2023-02-17T18:55:37.549Z,10.68
2023-02-17T18:59:07.393Z,10.74
2023-02-17T19:02:36.252Z,10.79
2023-02-17T19:06:11.451Z,10.81
2023-02-17T19:09:42.236Z,10.83
2023-02-17T19:13:09.524Z,10.84
2023-02-17T19:16:36.735Z,10.82
2023-02-17T19:20:04.421Z,10.79
2023-02-17T19:23:31.902Z,10.77
2023-02-17T19:26:59.021Z,10.74
2023-02-17T19:30:26.220Z,10.72
2023-02-17T19:33:53.843Z,10.68
2023-02-17T19:37:21.169Z,10.67
2023-02-17T19:40:48.948Z,10.68
2023-02-17T19:44:17.580Z,10.65
2023-02-17T19:47:46.375Z,10.57
2023-02-17T19:51:15.100Z,10.25
2023-02-17T19:54:42.564Z,9.78
2023-02-17T19:58:09.761Z,9.40
2023-02-17T20:01:37.585Z,9.16
2023-02-17T20:05:04.960Z,8.98
2023-02-17T20:08:32.271Z,8.89
2023-02-17T20:11:59.401Z,8.82
2023-02-17T20:15:26.632Z,8.80
2023-02-17T20:18:55.402Z,8.81
2023-02-17T20:22:22.543Z,8.85
2023-02-17T20:25:49.826Z,8.83
2023-02-17T20:29:17.909Z,8.83
2023-02-17T20:32:45.128Z,8.80
2023-02-17T20:36:13.481Z,8.77
2023-02-17T20:39:42.312Z,8.71
2023-02-17T20:43:12.451Z,8.68
2023-02-17T20:46:40.704Z,8.64
2023-02-17T20:50:09.790Z,8.59
2023-02-17T20:53:37.079Z,8.50
2023-02-17T20:57:04.956Z,8.41
2023-02-17T21:00:32.807Z,8.36
2023-02-17T21:03:59.954Z,8.32
2023-02-17T21:07:27.109Z,8.29
2023-02-17T21:10:54.554Z,8.28
2023-02-17T21:14:21.916Z,8.26
2023-02-17T21:17:49.582Z,8.25
2023-02-17T21:21:18.034Z,8.26
2023-02-17T21:24:45.097Z,8.24
2023-02-17T21:28:12.504Z,8.23
2023-02-17T21:31:40.249Z,8.20
2023-02-17T21:35:09.416Z,8.15
2023-02-17T21:38:36.510Z,8.10
2023-02-17T21:42:04.190Z,8.00
2023-02-17T21:45:31.284Z,7.88
2023-02-17T21:49:00.355Z,7.73
2023-02-17T21:52:27.725Z,7.64
2023-02-17T21:55:54.800Z,7.60
2023-02-17T21:59:22.026Z,7.55
2023-02-17T22:02:49.180Z,7.52
2023-02-17T22:06:19.571Z,7.48
2023-02-17T22:09:46.954Z,7.48
2023-02-17T22:13:14.072Z,7.50
2023-02-17T22:16:42.049Z,7.48
2023-02-17T22:20:11.327Z,7.49
2023-02-17T22:23:38.985Z,7.44
2023-02-17T22:27:06.169Z,7.40
2023-02-17T22:30:33.532Z,7.36
2023-02-17T22:34:03.067Z,7.31
2023-02-17T22:37:34.630Z,7.28
2023-02-17T22:41:08.810Z,7.22
2023-02-17T22:44:36.131Z,7.19
2023-02-17T22:48:03.324Z,7.17
2023-02-17T22:51:33.253Z,7.12
2023-02-17T22:55:00.639Z,7.08
2023-02-17T22:58:28.856Z,7.08
2023-02-17T23:01:59.133Z,7.05
2023-02-17T23:05:32.154Z,7.00
2023-02-17T23:09:02.028Z,6.93
2023-02-17T23:12:32.294Z,6.88
2023-02-17T23:16:03.103Z,6.87
2023-02-17T23:19:33.938Z,6.87
2023-02-17T23:23:01.114Z,6.89
2023-02-17T23:26:28.528Z,6.93
2023-02-17T23:29:55.988Z,6.93
2023-02-17T23:33:24.920Z,6.89
2023-02-17T23:36:52.106Z,6.85
2023-02-17T23:40:20.444Z,6.83
2023-02-17T23:43:50.687Z,6.79
2023-02-17T23:47:17.920Z,6.77
2023-02-17T23:50:45.465Z,6.75
2023-02-17T23:54:12.684Z,6.75
2023-02-17T23:57:40.358Z,6.73
